Time;durP1;ratioP1;P1;durP2;ratioP2;P2;SDS_P1;SDS_P2;PMS_P1;PMS_P2;Temp;Humidity;BMP_temperature;BMP_pressure;BME280_temperature;BME280_humidity;BME280_pressure;Samples;Min_cycle;Max_cycle;Signal;HPM_P1;HPM_P2
2021/06/02 00:02:00;;;;;;;5.40;2.30;;;20.00;53.40;;;;;;5074760;28;20127;-82
2021/06/02 00:04:27;;;;;;;7.82;2.58;;;20.00;53.60;;;;;;5076076;28;20051;-82
2021/06/02 00:07:06;;;;;;;4.65;2.38;;;19.90;53.80;;;;;;5074843;28;20058;-81
2021/06/02 00:09:33;;;;;;;5.95;2.40;;;19.90;54.10;;;;;;5074567;28;20017;-82
2021/06/02 00:12:03;;;;;;;6.18;2.63;;;19.90;54.30;;;;;;5074637;28;20384;-82
2021/06/02 00:14:30;;;;;;;5.97;2.60;;;19.80;55.00;;;;;;5074864;28;20418;-81
2021/06/02 00:16:57;;;;;;;7.10;2.22;;;19.80;54.50;;;;;;5074467;28;20017;-82
2021/06/02 00:19:23;;;;;;;8.30;2.90;;;19.70;54.60;;;;;;5074421;28;20108;-81
2021/06/02 00:21:50;;;;;;;5.03;2.47;;;19.80;55.00;;;;;;5075643;28;20070;-80
2021/06/02 00:24:17;;;;;;;5.93;2.83;;;19.80;55.20;;;;;;5074354;28;20028;-81
2021/06/02 00:26:45;;;;;;;5.72;3.42;;;19.70;55.40;;;;;;5075611;28;20025;-81
2021/06/02 00:29:12;;;;;;;5.32;2.92;;;19.70;55.40;;;;;;5074270;28;20024;-82
2021/06/02 00:31:45;;;;;;;6.43;3.13;;;19.60;55.70;;;;;;5074674;28;20020;-81
2021/06/02 00:34:11;;;;;;;6.05;2.95;;;19.60;55.80;;;;;;5074163;28;20028;-81
2021/06/02 00:36:43;;;;;;;5.57;2.92;;;19.50;56.00;;;;;;5073983;28;20161;-81
2021/06/02 00:39:10;;;;;;;6.85;2.92;;;19.50;56.30;;;;;;5073764;28;20484;-81
2021/06/02 00:41:39;;;;;;;5.53;3.10;;;19.50;56.40;;;;;;5073947;28;20028;-82
2021/06/02 00:44:18;;;;;;;6.15;3.10;;;19.40;56.90;;;;;;5074074;28;20380;-81
2021/06/02 00:46:45;;;;;;;5.15;2.65;;;19.30;56.80;;;;;;5058784;28;20097;-82
2021/06/02 00:49:14;;;;;;;8.07;3.80;;;19.20;57.40;;;;;;5075256;28;20021;-81
2021/06/02 00:51:39;;;;;;;6.05;3.65;;;19.20;57.70;;;;;;5073967;28;20107;-82
2021/06/02 00:54:06;;;;;;;5.95;3.10;;;19.20;57.80;;;;;;5057197;28;20119;-82
2021/06/02 00:56:48;;;;;;;7.50;3.42;;;19.10;58.20;;;;;;5057578;28;20115;-80
2021/06/02 00:59:36;;;;;;;7.57;3.40;;;19.10;58.30;;;;;;5073844;28;20483;-81
2021/06/02 01:02:03;;;;;;;8.32;3.65;;;19.10;58.40;;;;;;5074619;28;20102;-81
2021/06/02 01:04:29;;;;;;;7.80;3.85;;;19.00;58.70;;;;;;5073994;28;20074;-81
2021/06/02 01:06:56;;;;;;;5.32;3.22;;;19.00;59.00;;;;;;5073933;28;20023;-81
2021/06/02 01:09:23;;;;;;;6.20;3.50;;;18.90;59.00;;;;;;5040338;28;20125;-81
2021/06/02 01:11:50;;;;;;;8.85;4.00;;;18.90;59.40;;;;;;5073268;28;20111;-80
2021/06/02 01:14:16;;;;;;;7.00;3.75;;;18.80;59.70;;;;;;5073490;28;20476;-81
2021/06/02 01:16:42;;;;;;;9.63;4.22;;;18.80;60.00;;;;;;5074685;28;20134;-81
2021/06/02 01:19:13;;;;;;;6.72;3.78;;;18.70;60.30;;;;;;5073591;28;20561;-81
2021/06/02 01:22:01;;;;;;;7.72;4.00;;;18.70;60.60;;;;;;5073195;28;20025;-81
2021/06/02 01:24:29;;;;;;;7.80;3.95;;;18.70;60.90;;;;;;5073161;28;20012;-80
2021/06/02 01:26:57;;;;;;;7.43;4.45;;;18.60;60.90;;;;;;5056688;28;20055;-80
2021/06/02 01:29:23;;;;;;;7.65;4.65;;;18.60;61.30;;;;;;5073261;28;20108;-81
2021/06/02 01:32:16;;;;;;;8.77;4.65;;;18.60;61.60;;;;;;5073050;28;20028;-81
2021/06/02 01:35:04;;;;;;;8.55;4.80;;;18.50;61.90;;;;;;5072771;28;20063;-80
2021/06/02 01:38:08;;;;;;;7.57;4.47;;;18.50;62.90;;;;;;5072918;28;20082;-81
2021/06/02 01:41:01;;;;;;;10.15;4.95;;;18.40;62.60;;;;;;5071410;28;20151;-81
2021/06/02 01:43:55;;;;;;;7.03;4.70;;;18.30;63.10;;;;;;5072886;28;20079;-80
2021/06/02 01:46:35;;;;;;;11.63;5.55;;;18.30;63.40;;;;;;5072784;28;20028;-81
2021/06/02 01:49:16;;;;;;;7.13;4.72;;;18.30;63.30;;;;;;5072769;28;20052;-81
2021/06/02 01:52:12;;;;;;;10.55;5.25;;;18.30;63.50;;;;;;5071802;28;20032;-82
2021/06/02 01:54:46;;;;;;;7.28;4.57;;;18.20;63.80;;;;;;5074061;28;20060;-81
2021/06/02 01:57:30;;;;;;;8.02;5.20;;;18.20;64.10;;;;;;5072665;28;20032;-82
2021/06/02 02:00:28;;;;;;;10.38;5.95;;;18.10;64.50;;;;;;5073658;28;20024;-81
2021/06/02 02:03:15;;;;;;;9.23;5.10;;;18.10;64.80;;;;;;5074141;28;20036;-82
2021/06/02 02:06:18;;;;;;;9.45;5.45;;;18.10;64.80;;;;;;5072580;28;20082;-81
2021/06/02 02:09:04;;;;;;;9.63;6.00;;;18.10;65.10;;;;;;5072414;28;20056;-82
2021/06/02 02:11:32;;;;;;;7.40;5.07;;;18.00;65.30;;;;;;5072341;28;20439;-84
2021/06/02 02:14:17;;;;;;;9.25;5.50;;;18.00;65.50;;;;;;5072362;28;20070;-81
2021/06/02 02:17:21;;;;;;;9.57;5.32;;;18.00;65.90;;;;;;5072331;28;20020;-80
2021/06/02 02:20:11;;;;;;;8.98;4.97;;;18.00;66.10;;;;;;5072279;28;20021;-82
2021/06/02 02:23:04;;;;;;;10.05;6.22;;;18.00;66.20;;;;;;5070986;28;20115;-80
2021/06/02 02:25:38;;;;;;;9.50;5.55;;;18.00;66.40;;;;;;5072089;28;20038;-80
2021/06/02 02:28:23;;;;;;;11.93;6.00;;;17.90;66.50;;;;;;5072094;28;20082;-81
2021/06/02 02:31:30;;;;;;;9.50;5.80;;;18.00;66.80;;;;;;5072077;28;20480;-81
2021/06/02 02:34:26;;;;;;;10.88;5.95;;;17.90;66.80;;;;;;5072450;28;20499;-81
2021/06/02 02:37:03;;;;;;;10.52;5.40;;;17.90;66.70;;;;;;5072495;28;20044;-81
2021/06/02 02:39:35;;;;;;;9.85;5.55;;;17.90;66.70;;;;;;5072099;28;20360;-81
2021/06/02 02:42:21;;;;;;;11.75;5.63;;;17.90;66.70;;;;;;5071926;28;20044;-81
2021/06/02 02:45:11;;;;;;;11.70;5.95;;;17.90;66.90;;;;;;5057117;28;20020;-82
2021/06/02 02:48:08;;;;;;;9.52;6.00;;;17.90;67.00;;;;;;5071919;28;20024;-81
2021/06/02 02:51:01;;;;;;;8.88;5.93;;;17.90;67.00;;;;;;5071920;28;20033;-82
2021/06/02 02:53:56;;;;;;;9.50;5.97;;;17.90;67.10;;;;;;5072020;28;20032;-81
2021/06/02 02:57:02;;;;;;;11.52;5.95;;;17.90;67.10;;;;;;5072221;28;20037;-81
2021/06/02 02:59:45;;;;;;;9.52;5.85;;;17.90;67.30;;;;;;5055025;28;20036;-81
2021/06/02 03:02:26;;;;;;;10.75;5.80;;;17.80;67.20;;;;;;5072711;28;20032;-81
2021/06/02 03:04:56;;;;;;;8.32;5.13;;;17.80;67.20;;;;;;5075967;28;20452;-82
2021/06/02 03:07:23;;;;;;;11.27;5.47;;;17.80;67.30;;;;;;5075840;28;20503;-81
2021/06/02 03:10:08;;;;;;;9.70;5.90;;;17.80;67.40;;;;;;5075679;28;20111;-81
2021/06/02 03:12:55;;;;;;;;;;;17.80;67.70;;;;;;5076547;28;20017;-81
2021/06/02 03:15:29;;;;;;;8.43;5.38;;;17.80;67.60;;;;;;5075725;28;19904;-81
2021/06/02 03:18:01;;;;;;;11.23;5.88;;;17.70;67.30;;;;;;5075482;28;20033;-82
2021/06/02 03:20:32;;;;;;;8.68;5.60;;;17.70;67.60;;;;;;5075740;28;20024;-81
2021/06/02 03:23:15;;;;;;;10.70;6.57;;;17.70;68.50;;;;;;5075656;28;20119;-82
2021/06/02 03:26:05;;;;;;;12.32;6.72;;;17.60;68.00;;;;;;5075648;28;20024;-81
2021/06/02 03:29:04;;;;;;;10.52;6.10;;;17.60;68.10;;;;;;5075568;28;20078;-82
2021/06/02 03:32:01;;;;;;;10.77;6.57;;;17.60;68.20;;;;;;5075456;28;20021;-82
2021/06/02 03:34:35;;;;;;;11.27;5.95;;;17.60;68.30;;;;;;5075009;28;20522;-82
2021/06/02 03:37:09;;;;;;;11.10;6.28;;;17.60;68.20;;;;;;5075133;28;20025;-81
2021/06/02 03:39:41;;;;;;;10.52;6.50;;;17.60;68.50;;;;;;5075125;28;20032;-82
2021/06/02 03:42:15;;;;;;;11.13;6.85;;;17.60;68.60;;;;;;5074806;28;20024;-82
2021/06/02 03:45:05;;;;;;;12.50;6.78;;;17.50;68.80;;;;;;5075041;28;20500;-81
2021/06/02 03:47:52;;;;;;;12.30;6.80;;;17.50;69.20;;;;;;5074172;28;20036;-82
2021/06/02 03:50:26;;;;;;;11.25;5.45;;;17.50;69.40;;;;;;5074711;28;20033;-82
2021/06/02 03:53:18;;;;;;;10.98;6.25;;;17.60;69.50;;;;;;5074765;28;20551;-82
2021/06/02 03:55:48;;;;;;;11.50;6.32;;;17.50;69.60;;;;;;5074846;28;20029;-82
2021/06/02 03:58:29;;;;;;;10.40;6.20;;;17.50;69.70;;;;;;5074544;28;20056;-82
2021/06/02 04:01:10;;;;;;;10.80;7.15;;;17.40;69.90;;;;;;5073105;28;20056;-82
2021/06/02 04:03:56;;;;;;;11.93;6.80;;;17.40;70.00;;;;;;5074220;28;20025;-82
2021/06/02 04:07:00;;;;;;;9.13;5.97;;;17.40;70.10;;;;;;5074882;28;20025;-82
2021/06/02 04:09:27;;;;;;;9.70;6.50;;;17.40;70.20;;;;;;5075731;28;20130;-82
2021/06/02 04:11:59;;;;;;;10.82;7.40;;;17.40;70.20;;;;;;5074975;28;20025;-82
2021/06/02 04:14:37;;;;;;;9.88;6.55;;;17.40;70.40;;;;;;5073606;28;20090;-82
2021/06/02 04:17:03;;;;;;;10.95;6.75;;;17.40;70.60;;;;;;5074549;28;20029;-83
2021/06/02 04:19:32;;;;;;;12.95;7.65;;;17.40;70.80;;;;;;5074600;28;20036;-82
2021/06/02 04:22:03;;;;;;;11.88;6.47;;;17.40;71.00;;;;;;5075611;28;20089;-82
2021/06/02 04:24:30;;;;;;;11.52;6.88;;;17.40;71.20;;;;;;5074629;28;20112;-84
2021/06/02 04:26:57;;;;;;;10.25;6.22;;;17.40;71.40;;;;;;5057014;28;20025;-84
2021/06/02 04:29:25;;;;;;;12.48;7.38;;;17.40;71.50;;;;;;5072329;28;20602;-82
2021/06/02 04:31:54;;;;;;;10.88;6.90;;;17.50;71.80;;;;;;5074449;28;20078;-82
2021/06/02 04:34:25;;;;;;;10.52;6.75;;;17.50;72.50;;;;;;5073997;28;20082;-82
2021/06/02 04:36:57;;;;;;;11.55;7.15;;;17.50;71.80;;;;;;5074233;28;20036;-82
2021/06/02 04:39:24;;;;;;;10.18;6.85;;;17.50;72.00;;;;;;5075468;28;20032;-82
2021/06/02 04:41:54;;;;;;;12.90;7.28;;;17.50;72.10;;;;;;5074056;28;20075;-83
2021/06/02 04:44:23;;;;;;;11.70;7.85;;;17.50;72.30;;;;;;5074109;28;20021;-82
2021/06/02 04:46:49;;;;;;;14.18;7.25;;;17.50;72.40;;;;;;5074636;28;20025;-83
2021/06/02 04:49:16;;;;;;;11.93;8.10;;;17.50;72.40;;;;;;5074118;28;20033;-82
2021/06/02 04:52:00;;;;;;;11.80;7.47;;;17.60;72.60;;;;;;5074063;28;20033;-82
2021/06/02 04:54:25;;;;;;;16.52;8.05;;;17.60;72.50;;;;;;5074274;28;20468;-84
2021/06/02 04:57:09;;;;;;;12.65;7.70;;;17.60;72.60;;;;;;5074198;28;20055;-85
2021/06/02 04:59:59;;;;;;;;;;;17.60;72.70;;;;;;5074297;28;20511;-82
2021/06/02 05:03:02;;;;;;;10.68;6.50;;;17.60;72.80;;;;;;5073566;28;19915;-84
2021/06/02 05:05:46;;;;;;;11.07;6.90;;;17.60;72.40;;;;;;5075249;28;20028;-83
2021/06/02 05:08:46;;;;;;;13.73;7.28;;;17.70;72.50;;;;;;5074072;28;20028;-82
2021/06/02 05:11:30;;;;;;;12.98;7.30;;;17.60;72.50;;;;;;5073420;28;20373;-84
2021/06/02 05:14:01;;;;;;;;;;;17.70;72.70;;;;;;5073880;28;20064;-84
2021/06/02 05:16:45;;;;;;;11.13;6.68;;;17.70;72.60;;;;;;5073401;28;19969;-83
2021/06/02 05:22:41;;;;;;;9.65;6.43;;;17.70;72.40;;;;;;5074276;28;20416;-83
2021/06/02 05:25:45;;;;;;;10.93;7.20;;;17.80;72.40;;;;;;5070761;28;20043;-78
2021/06/02 05:28:48;;;;;;;10.50;6.80;;;17.80;72.40;;;;;;5066350;28;20392;-83
2021/06/02 05:31:20;;;;;;;10.00;6.80;;;17.80;72.30;;;;;;5060291;28;20115;-82
2021/06/02 05:34:14;;;;;;;11.98;6.85;;;17.90;72.20;;;;;;5072908;28;20070;-84
2021/06/02 05:37:30;;;;;;;11.25;7.28;;;17.90;72.30;;;;;;5072753;28;20119;-84
2021/06/02 05:40:10;;;;;;;11.18;7.57;;;17.90;72.30;;;;;;5054038;28;20029;-84
2021/06/02 05:42:39;;;;;;;12.02;7.47;;;17.90;72.00;;;;;;5073126;28;20492;-83
2021/06/02 05:45:17;;;;;;;12.77;8.25;;;18.00;72.00;;;;;;5073050;28;20050;-81
2021/06/02 05:48:13;;;;;;;13.55;6.38;;;18.00;71.80;;;;;;5074295;28;20039;-83
2021/06/02 05:51:29;;;;;;;11.02;7.13;;;18.00;71.80;;;;;;5073895;28;20024;-83
2021/06/02 05:53:57;;;;;;;11.10;7.35;;;18.10;72.40;;;;;;5072597;28;20024;-84
2021/06/02 05:57:00;;;;;;;12.65;7.93;;;18.10;71.50;;;;;;5073016;28;20111;-81
2021/06/02 06:00:08;;;;;;;12.95;7.32;;;18.10;71.30;;;;;;5072501;28;20048;-82
2021/06/02 06:02:37;;;;;;;14.25;7.30;;;18.20;71.10;;;;;;5073561;28;20395;-82
2021/06/02 06:05:25;;;;;;;12.60;7.75;;;18.20;70.90;;;;;;5071793;28;20028;-82
2021/06/02 06:08:33;;;;;;;11.38;6.85;;;18.20;70.90;;;;;;5073837;28;20017;-82
2021/06/02 06:11:30;;;;;;;14.63;7.10;;;18.20;70.90;;;;;;5073646;28;20020;-80
2021/06/02 06:13:59;;;;;;;12.32;7.13;;;18.30;70.80;;;;;;5053323;28;20040;-80
2021/06/02 06:16:43;;;;;;;15.27;7.25;;;18.30;70.70;;;;;;5052434;28;20128;-80
2021/06/02 06:19:30;;;;;;;12.57;7.68;;;18.40;70.90;;;;;;5052175;28;20021;-81
2021/06/02 06:22:01;;;;;;;9.82;6.72;;;18.40;70.70;;;;;;5051824;28;20037;-81
2021/06/02 06:24:47;;;;;;;12.55;7.65;;;18.40;70.50;;;;;;5053435;28;20103;-82
2021/06/02 06:27:28;;;;;;;13.35;7.40;;;18.40;70.50;;;;;;5052139;28;20024;-80
2021/06/02 06:30:01;;;;;;;16.25;7.55;;;18.50;70.50;;;;;;5052164;28;20086;-83
2021/06/02 06:32:29;;;;;;;12.48;7.65;;;18.50;70.30;;;;;;5052170;28;20033;-82
2021/06/02 06:34:58;;;;;;;12.88;7.97;;;18.50;70.10;;;;;;5061942;28;20044;-84
2021/06/02 06:37:30;;;;;;;13.02;7.45;;;18.60;69.90;;;;;;5063035;28;20037;-84
2021/06/02 06:39:59;;;;;;;17.65;8.23;;;18.60;69.70;;;;;;5036398;28;20021;-85
2021/06/02 06:42:50;;;;;;;12.45;8.07;;;18.60;69.30;;;;;;5035679;28;20029;-86
2021/06/02 06:46:03;;;;;;;16.33;8.23;;;18.70;69.30;;;;;;5052267;28;20151;-83
2021/06/02 06:48:29;;;;;;;13.95;7.20;;;18.70;69.10;;;;;;5034510;28;20025;-85
2021/06/02 06:50:59;;;;;;;12.88;6.80;;;18.80;69.00;;;;;;5057313;28;20086;-82
2021/06/02 06:53:26;;;;;;;11.05;6.38;;;18.80;68.80;;;;;;5072389;28;20032;-83
2021/06/02 06:55:53;;;;;;;10.13;6.47;;;18.80;68.80;;;;;;5072163;28;20029;-83
2021/06/02 06:58:20;;;;;;;11.45;6.80;;;18.90;68.90;;;;;;5072415;28;20036;-83
2021/06/02 07:00:46;;;;;;;11.60;7.55;;;18.90;68.90;;;;;;5071697;28;20024;-83
2021/06/02 07:03:14;;;;;;;13.73;7.60;;;18.90;68.90;;;;;;5073329;28;20032;-82
2021/06/02 07:05:41;;;;;;;14.75;8.20;;;19.00;68.80;;;;;;5072056;28;20077;-84
2021/06/02 07:08:08;;;;;;;12.90;7.47;;;19.00;68.70;;;;;;5072213;28;20025;-86
2021/06/02 07:10:34;;;;;;;9.43;6.35;;;19.00;68.50;;;;;;5072379;28;20106;-84
2021/06/02 07:13:00;;;;;;;11.50;7.38;;;19.10;68.70;;;;;;5072563;28;20064;-85
2021/06/02 07:15:27;;;;;;;13.82;7.28;;;19.10;68.70;;;;;;5072850;28;20024;-84
2021/06/02 07:17:54;;;;;;;9.90;6.88;;;19.20;68.60;;;;;;5072121;28;20456;-84
2021/06/02 07:20:25;;;;;;;13.48;7.88;;;19.20;68.30;;;;;;5068775;28;20039;-83
2021/06/02 07:22:52;;;;;;;11.57;7.63;;;19.20;68.70;;;;;;5061017;28;20635;-84
2021/06/02 07:25:23;;;;;;;9.90;6.55;;;19.30;68.10;;;;;;5037898;28;20037;-85
2021/06/02 07:27:50;;;;;;;13.40;6.97;;;19.30;67.90;;;;;;5053364;28;20024;-84
2021/06/02 07:30:17;;;;;;;11.93;6.45;;;19.40;67.80;;;;;;5037586;28;20029;-85
2021/06/02 07:32:43;;;;;;;11.60;7.35;;;19.50;67.60;;;;;;5055150;28;20028;-85
2021/06/02 07:35:10;;;;;;;10.30;6.70;;;19.50;67.20;;;;;;5058456;28;20108;-84
2021/06/02 07:37:36;;;;;;;11.85;6.95;;;19.50;66.90;;;;;;5052381;28;20461;-84
2021/06/02 07:40:03;;;;;;;11.68;6.60;;;19.60;66.80;;;;;;5052174;28;20424;-84
2021/06/02 07:42:29;;;;;;;14.27;7.55;;;19.70;66.60;;;;;;5064805;28;20415;-84
2021/06/02 07:44:54;;;;;;;12.85;7.70;;;19.80;66.40;;;;;;5072412;28;20029;-82
2021/06/02 07:47:21;;;;;;;10.93;7.18;;;19.80;66.40;;;;;;5073658;28;20029;-84
2021/06/02 07:49:46;;;;;;;11.73;7.50;;;19.80;66.40;;;;;;5057162;28;20028;-84
2021/06/02 07:52:12;;;;;;;12.57;7.20;;;19.90;66.30;;;;;;5059994;28;20029;-84
2021/06/02 07:54:38;;;;;;;10.80;6.88;;;19.90;65.90;;;;;;5042952;28;20035;-86
2021/06/02 07:57:04;;;;;;;12.05;7.20;;;20.00;65.70;;;;;;5075657;28;20387;-84
2021/06/02 07:59:30;;;;;;;11.35;7.72;;;20.10;65.60;;;;;;5075921;28;20029;-84
2021/06/02 08:01:56;;;;;;;12.40;6.90;;;20.20;65.40;;;;;;5076187;28;20435;-84
2021/06/02 08:04:21;;;;;;;12.13;6.47;;;20.20;65.40;;;;;;5043951;28;20024;-83
2021/06/02 08:06:47;;;;;;;13.40;7.28;;;20.30;65.30;;;;;;5078289;28;20024;-83
2021/06/02 08:09:17;;;;;;;11.73;7.60;;;20.30;64.80;;;;;;5076611;28;20021;-85
2021/06/02 08:11:45;;;;;;;14.05;7.30;;;20.40;64.60;;;;;;5076818;28;20043;-85
2021/06/02 08:14:11;;;;;;;13.02;7.90;;;20.40;64.60;;;;;;5059811;28;20021;-83
2021/06/02 08:16:36;;;;;;;12.68;8.85;;;20.50;64.80;;;;;;5076558;28;20384;-84
2021/06/02 08:19:03;;;;;;;17.70;7.85;;;20.60;64.60;;;;;;5042030;28;20093;-83
2021/06/02 08:21:28;;;;;;;11.80;7.80;;;20.60;64.40;;;;;;5058751;28;20492;-83
2021/06/02 08:23:54;;;;;;;12.02;7.22;;;20.70;64.40;;;;;;5070728;28;20044;-83
2021/06/02 08:26:20;;;;;;;11.63;7.80;;;20.80;64.40;;;;;;5070422;28;20021;-83
2021/06/02 08:28:45;;;;;;;8.60;6.00;;;20.90;64.20;;;;;;5060649;28;20021;-80
2021/06/02 08:31:11;;;;;;;12.32;6.63;;;20.90;64.30;;;;;;5057059;28;20033;-84
2021/06/02 08:33:37;;;;;;;9.60;6.72;;;20.90;64.10;;;;;;5055737;28;20028;-80
2021/06/02 08:36:03;;;;;;;9.95;7.05;;;21.00;64.00;;;;;;5040314;28;20045;-82
2021/06/02 08:38:28;;;;;;;9.90;6.50;;;21.00;63.80;;;;;;5041801;28;20032;-84
2021/06/02 08:40:54;;;;;;;8.80;6.47;;;21.00;63.60;;;;;;5059828;28;20545;-82
2021/06/02 08:43:20;;;;;;;9.32;6.20;;;21.10;63.60;;;;;;5056663;28;20025;-83
2021/06/02 08:45:48;;;;;;;8.00;4.97;;;21.10;63.70;;;;;;5054234;28;20040;-78
2021/06/02 08:48:13;;;;;;;11.45;5.72;;;21.30;63.60;;;;;;5054725;28;20025;-78
2021/06/02 08:50:39;;;;;;;9.35;5.40;;;21.30;63.30;;;;;;5037800;28;20059;-78
2021/06/02 08:53:05;;;;;;;9.80;5.35;;;21.30;63.10;;;;;;5054095;28;20116;-78
2021/06/02 08:55:31;;;;;;;10.45;5.57;;;21.40;63.00;;;;;;5055780;28;20036;-84
2021/06/02 08:57:58;;;;;;;9.88;6.35;;;21.40;62.60;;;;;;5037565;28;20025;-84
2021/06/02 09:00:25;;;;;;;10.43;6.57;;;21.50;62.20;;;;;;5036720;28;20112;-85
2021/06/02 09:02:55;;;;;;;9.85;5.85;;;21.60;61.90;;;;;;5053701;28;20033;-84
2021/06/02 09:05:22;;;;;;;8.32;5.65;;;21.70;61.50;;;;;;5054075;28;20025;-86
2021/06/02 09:07:50;;;;;;;9.75;5.55;;;21.80;61.40;;;;;;5053720;28;20021;-87
2021/06/02 09:10:18;;;;;;;9.63;5.85;;;21.80;61.30;;;;;;5053563;28;20025;-79
2021/06/02 09:12:45;;;;;;;8.77;5.03;;;21.90;61.10;;;;;;5055114;28;20021;-80
2021/06/02 09:15:21;;;;;;;8.18;4.78;;;22.00;60.50;;;;;;5053654;28;20021;-77
2021/06/02 09:17:47;;;;;;;7.18;4.40;;;22.10;60.00;;;;;;5053689;28;20083;-79
2021/06/02 09:20:30;;;;;;;7.88;4.35;;;22.20;59.50;;;;;;5053375;28;20029;-78
2021/06/02 09:22:56;;;;;;;8.45;4.97;;;22.20;59.30;;;;;;5054056;28;20403;-78
2021/06/02 09:25:22;;;;;;;7.05;4.80;;;22.30;59.20;;;;;;5053968;28;20037;-79
2021/06/02 09:27:54;;;;;;;9.68;4.03;;;22.40;58.90;;;;;;5036726;28;20033;-79
2021/06/02 09:30:22;;;;;;;7.68;4.90;;;22.50;58.90;;;;;;5053598;28;20360;-80
2021/06/02 09:32:54;;;;;;;8.50;4.75;;;22.50;59.00;;;;;;5054742;28;20028;-79
2021/06/02 09:35:20;;;;;;;7.75;4.30;;;22.60;58.90;;;;;;5053156;28;20098;-79
2021/06/02 09:37:56;;;;;;;5.57;4.10;;;22.70;58.60;;;;;;5053200;28;20036;-79
2021/06/02 09:40:32;;;;;;;5.50;3.63;;;22.80;58.30;;;;;;5053037;28;20504;-76
2021/06/02 09:42:57;;;;;;;8.43;4.25;;;22.80;58.10;;;;;;5052781;28;20033;-77
2021/06/02 09:45:24;;;;;;;5.63;3.80;;;22.90;57.80;;;;;;5054538;28;20032;-79
2021/06/02 09:47:55;;;;;;;6.40;3.50;;;23.00;57.30;;;;;;5053517;28;20028;-80
2021/06/02 09:50:29;;;;;;;5.70;2.95;;;23.10;57.10;;;;;;5052893;28;20151;-79
2021/06/02 09:52:56;;;;;;;5.53;2.58;;;23.20;56.40;;;;;;5053781;28;20028;-79
2021/06/02 09:55:38;;;;;;;4.95;3.25;;;23.30;55.80;;;;;;5052573;28;20071;-80
2021/06/02 09:58:07;;;;;;;8.13;3.40;;;23.30;55.20;;;;;;5052853;28;20021;-81
2021/06/02 10:00:33;;;;;;;9.48;3.13;;;23.40;55.10;;;;;;5053732;28;20028;-81
2021/06/02 10:03:09;;;;;;;8.57;2.38;;;23.50;54.90;;;;;;5053100;28;20035;-80
2021/06/02 10:05:39;;;;;;;6.50;2.00;;;23.60;54.30;;;;;;5053166;28;20029;-79
2021/06/02 10:08:06;;;;;;;4.65;2.28;;;23.60;53.60;;;;;;5054103;28;20527;-79
2021/06/02 10:10:32;;;;;;;3.40;1.88;;;23.70;53.30;;;;;;5036016;28;20022;-80
2021/06/02 10:13:02;;;;;;;3.25;1.52;;;23.80;53.00;;;;;;5051484;28;20025;-80
2021/06/02 10:15:31;;;;;;;4.18;1.90;;;23.90;52.50;;;;;;5053394;28;20021;-78
2021/06/02 10:17:57;;;;;;;4.28;1.88;;;23.90;52.10;;;;;;5053697;28;20350;-77
2021/06/02 10:20:23;;;;;;;4.63;1.88;;;24.00;51.60;;;;;;5053905;28;20412;-77
2021/06/02 10:22:57;;;;;;;4.97;1.52;;;24.10;51.20;;;;;;5053450;28;20032;-78
2021/06/02 10:25:25;;;;;;;3.35;1.75;;;24.10;50.30;;;;;;5051982;28;20048;-76
2021/06/02 10:27:54;;;;;;;3.03;1.50;;;24.30;50.10;;;;;;5053287;28;20538;-78
2021/06/02 10:30:24;;;;;;;3.92;1.67;;;24.30;49.90;;;;;;5051915;28;20025;-77
2021/06/02 10:32:52;;;;;;;4.10;1.77;;;24.50;49.70;;;;;;5051834;28;20542;-77
2021/06/02 10:35:18;;;;;;;5.95;1.67;;;24.60;49.50;;;;;;5052144;28;20048;-77
2021/06/02 10:37:44;;;;;;;4.78;1.38;;;24.70;49.00;;;;;;5053299;28;20354;-77
2021/06/02 10:40:15;;;;;;;5.07;2.17;;;24.80;48.50;;;;;;5051861;28;20036;-78
2021/06/02 10:42:40;;;;;;;4.55;1.92;;;25.00;48.20;;;;;;5052951;28;20033;-76
2021/06/02 10:45:23;;;;;;;4.75;1.80;;;25.20;48.00;;;;;;5053240;28;20096;-77
2021/06/02 10:47:54;;;;;;;4.47;1.40;;;25.30;47.40;;;;;;5053510;28;20052;-79
2021/06/02 10:50:48;;;;;;;3.80;1.33;;;25.50;47.20;;;;;;5053170;28;20021;-80
2021/06/02 10:53:24;;;;;;;5.80;1.70;;;25.70;46.50;;;;;;5053129;28;20025;-79
2021/06/02 10:55:56;;;;;;;7.38;1.42;;;25.90;46.20;;;;;;5059459;28;20028;-78
2021/06/02 10:58:47;;;;;;;2.85;1.40;;;26.00;46.00;;;;;;5073094;28;20690;-77
2021/06/02 11:01:18;;;;;;;3.90;1.60;;;26.20;45.20;;;;;;5071979;28;20039;-77
2021/06/02 11:03:46;;;;;;;4.28;1.38;;;26.40;45.10;;;;;;5065587;28;20044;-77
2021/06/02 11:06:15;;;;;;;2.53;1.23;;;26.50;44.90;;;;;;5051809;28;20021;-78
2021/06/02 11:08:52;;;;;;;3.33;1.20;;;26.70;44.50;;;;;;5052136;28;20112;-77
2021/06/02 11:11:38;;;;;;;2.45;1.35;;;26.90;43.70;;;;;;5061334;28;20522;-79
2021/06/02 11:14:20;;;;;;;5.40;1.60;;;27.10;42.60;;;;;;5064898;28;20029;-79
2021/06/02 11:16:57;;;;;;;3.38;1.13;;;27.20;42.10;;;;;;5056825;28;20033;-81
2021/06/02 11:19:28;;;;;;;3.63;1.10;;;27.40;42.20;;;;;;5051758;28;20021;-82
2021/06/02 11:21:56;;;;;;;2.97;1.08;;;27.70;41.50;;;;;;5035750;28;20033;-82
2021/06/02 11:24:34;;;;;;;2.33;1.17;;;28.00;41.20;;;;;;5054702;28;20027;-82
2021/06/02 11:29:49;;;;;;;3.20;1.08;;;28.50;39.70;;;;;;5057641;28;20025;-81
2021/06/02 11:32:22;;;;;;;4.57;1.00;;;28.60;39.00;;;;;;5056422;28;20573;-84
2021/06/02 11:35:04;;;;;;;2.70;0.93;;;28.80;38.90;;;;;;5056760;28;20421;-82
2021/06/02 11:37:32;;;;;;;3.30;1.10;;;29.00;38.20;;;;;;5055696;28;20025;-82
2021/06/02 11:40:01;;;;;;;1.92;0.88;;;29.20;39.20;;;;;;5059580;28;20115;-81
2021/06/02 11:42:31;;;;;;;2.10;1.00;;;29.50;38.50;;;;;;5075208;28;20035;-83
2021/06/02 11:44:58;;;;;;;5.88;0.95;;;29.60;37.90;;;;;;5075221;28;20048;-82
2021/06/02 11:47:24;;;;;;;3.03;0.98;;;29.70;37.30;;;;;;5058986;28;20074;-82
2021/06/02 11:49:50;;;;;;;3.45;0.90;;;29.90;36.80;;;;;;5075411;28;20426;-84
2021/06/02 11:52:17;;;;;;;1.75;0.80;;;30.10;36.50;;;;;;5059362;28;20029;-80
2021/06/02 11:55:03;;;;;;;4.93;1.10;;;30.20;36.20;;;;;;5075447;28;20025;-78
2021/06/02 11:57:32;;;;;;;6.03;1.30;;;30.40;35.90;;;;;;5074915;28;20014;-80
2021/06/02 12:00:00;;;;;;;2.22;0.95;;;30.60;35.80;;;;;;5076356;28;20029;-78
2021/06/02 12:02:26;;;;;;;2.25;0.90;;;30.90;35.70;;;;;;5075726;28;20073;-81
2021/06/02 12:04:52;;;;;;;1.75;0.90;;;31.20;35.50;;;;;;5075212;28;20028;-80
2021/06/02 12:07:22;;;;;;;2.60;1.25;;;31.40;35.20;;;;;;5060605;28;20029;-81
2021/06/02 12:09:52;;;;;;;3.33;1.20;;;31.70;34.60;;;;;;5076980;28;20020;-81
2021/06/02 12:12:19;;;;;;;3.03;1.30;;;31.80;34.50;;;;;;5095011;28;20028;-81
2021/06/02 12:14:58;;;;;;;3.95;1.13;;;31.90;34.50;;;;;;5095232;28;20044;-81
2021/06/02 12:17:31;;;;;;;4.03;1.23;;;31.90;34.20;;;;;;5078007;28;20077;-75
2021/06/02 12:19:59;;;;;;;4.32;1.35;;;31.90;34.40;;;;;;5095328;28;20115;-76
2021/06/02 12:22:26;;;;;;;2.60;1.38;;;32.10;34.50;;;;;;5071289;28;20090;-77
2021/06/02 12:25:05;;;;;;;3.88;1.15;;;32.30;34.40;;;;;;5054230;28;20067;-77
2021/06/02 12:27:57;;;;;;;4.65;1.15;;;32.40;34.10;;;;;;5054200;28;20032;-76
2021/06/02 12:30:23;;;;;;;2.58;1.02;;;32.70;33.80;;;;;;5059983;28;20086;-79
2021/06/02 12:32:58;;;;;;;3.38;1.30;;;32.70;34.10;;;;;;5062240;28;20037;-77
2021/06/02 12:35:34;;;;;;;2.67;1.05;;;32.90;33.80;;;;;;5054599;28;20492;-77
2021/06/02 12:38:20;;;;;;;6.00;1.38;;;33.00;33.70;;;;;;5055604;28;20398;-77
2021/06/02 12:40:51;;;;;;;4.00;1.10;;;33.20;33.40;;;;;;5054176;28;20029;-78
2021/06/02 12:43:25;;;;;;;3.50;1.25;;;33.50;33.20;;;;;;5054248;28;20104;-78
2021/06/02 12:45:53;;;;;;;7.38;1.33;;;33.70;33.10;;;;;;5053876;28;20082;-76
2021/06/02 12:48:31;;;;;;;3.08;1.40;;;33.80;33.00;;;;;;5055301;28;20356;-75
2021/06/02 12:50:57;;;;;;;2.28;1.00;;;33.90;32.70;;;;;;5055219;28;20029;-76
2021/06/02 12:53:32;;;;;;;3.42;1.10;;;34.00;33.00;;;;;;5055595;28;20036;-81
2021/06/02 12:55:58;;;;;;;4.35;1.17;;;34.20;33.20;;;;;;5053879;28;20021;-79
2021/06/02 12:58:24;;;;;;;3.13;1.00;;;34.30;32.90;;;;;;5055387;28;20036;-79
2021/06/02 13:00:52;;;;;;;3.30;1.33;;;34.50;32.60;;;;;;5032861;28;20361;-80
2021/06/02 13:03:21;;;;;;;3.35;1.25;;;34.80;32.40;;;;;;5075501;28;20017;-77
2021/06/02 13:05:49;;;;;;;4.43;1.20;;;34.90;32.00;;;;;;5073869;28;20025;-78
2021/06/02 13:08:15;;;;;;;4.75;1.55;;;35.00;31.60;;;;;;5071288;28;20068;-76
2021/06/02 13:10:46;;;;;;;5.55;1.30;;;35.10;31.60;;;;;;5075331;28;20025;-76
2021/06/02 13:13:13;;;;;;;2.72;1.10;;;35.30;32.20;;;;;;5075153;28;20372;-75
2021/06/02 13:15:42;;;;;;;4.93;1.50;;;35.50;31.50;;;;;;5074996;28;20034;-76
2021/06/02 13:18:20;;;;;;;2.35;1.02;;;35.70;31.20;;;;;;5073964;28;20029;-84
2021/06/02 13:20:46;;;;;;;2.60;1.20;;;35.90;30.70;;;;;;5073118;28;20013;-79
2021/06/02 13:23:26;;;;;;;3.78;1.02;;;36.00;30.70;;;;;;5073513;28;20033;-82
2021/06/02 13:26:08;;;;;;;1.83;0.90;;;36.10;30.20;;;;;;5069786;28;20371;-83
2021/06/02 13:28:55;;;;;;;1.98;1.00;;;36.20;30.00;;;;;;5053236;28;20485;-82